createdAt,value
2018-04-15T00:00:49.483Z,75.40
2018-04-15T00:03:17.732Z,74.60
2018-04-15T00:05:46.396Z,77.10
2018-04-15T00:08:14.636Z,80.40
2018-04-15T00:10:42.879Z,76.80
2018-04-15T00:13:11.155Z,75.60
2018-04-15T00:15:39.525Z,78.20
2018-04-15T00:18:07.748Z,77.60
2018-04-15T00:20:37.327Z,78.20
2018-04-15T00:23:05.574Z,78.10
2018-04-15T00:25:33.822Z,76.60
2018-04-15T00:28:02.527Z,76.90
2018-04-15T00:30:30.769Z,76.60
2018-04-15T00:32:59.010Z,79.00
2018-04-15T00:35:27.268Z,78.10
2018-04-15T00:37:55.507Z,77.80
2018-04-15T00:40:23.756Z,77.90
2018-04-15T00:42:52.011Z,77.20
2018-04-15T00:45:20.265Z,80.70
2018-04-15T00:47:48.509Z,82.40
2018-04-15T00:50:17.218Z,82.80
2018-04-15T00:52:45.445Z,79.90
2018-04-15T00:55:14.473Z,80.20
2018-04-15T00:57:43.078Z,80.20
2018-04-15T01:00:11.419Z,79.80
2018-04-15T01:02:40.420Z,77.90
2018-04-15T01:05:09.448Z,78.10
2018-04-15T01:07:37.776Z,78.10
2018-04-15T01:10:06.782Z,80.70
2018-04-15T01:12:36.241Z,83.30
2018-04-15T01:15:04.494Z,83.30
2018-04-15T01:17:32.739Z,81.40
2018-04-15T01:20:01.020Z,81.80
2018-04-15T01:22:29.896Z,82.00
2018-04-15T01:24:58.901Z,82.00
2018-04-15T01:27:27.931Z,81.70
2018-04-15T01:29:56.175Z,81.70
2018-04-15T01:32:24.416Z,80.60
2018-04-15T01:34:53.693Z,81.70
2018-04-15T01:37:21.936Z,81.70
2018-04-15T01:39:50.175Z,84.80
2018-04-15T01:42:19.212Z,82.90
2018-04-15T01:44:47.463Z,82.90
2018-04-15T01:47:16.496Z,83.60
2018-04-15T01:49:44.759Z,83.40
2018-04-15T01:52:13.004Z,82.40
2018-04-15T01:54:41.243Z,83.50
2018-04-15T01:57:09.691Z,84.70
2018-04-15T01:59:37.945Z,84.70
2018-04-15T02:02:06.196Z,86.00
2018-04-15T02:04:34.464Z,90.80
2018-04-15T02:07:02.712Z,90.10
2018-04-15T02:09:30.952Z,86.30
2018-04-15T02:12:00.019Z,86.40
2018-04-15T02:14:28.252Z,86.40
2018-04-15T02:16:56.519Z,89.40
2018-04-15T02:19:25.115Z,88.00
2018-04-15T02:21:53.460Z,86.90
2018-04-15T02:24:21.833Z,90.00
2018-04-15T02:26:50.863Z,90.10
2018-04-15T02:29:19.106Z,90.00
2018-04-15T02:31:47.344Z,90.10
2018-04-15T02:34:15.616Z,90.20
2018-04-15T02:36:43.867Z,90.80
2018-04-15T02:39:12.107Z,90.10
2018-04-15T02:41:41.465Z,91.00
2018-04-15T02:44:09.696Z,90.90
2018-04-15T02:46:37.948Z,91.00
2018-04-15T02:49:06.211Z,91.40
2018-04-15T02:51:34.465Z,91.10
2018-04-15T02:54:02.699Z,90.00
2018-04-15T02:56:31.738Z,89.80
2018-04-15T02:58:59.987Z,89.80
2018-04-15T03:01:28.407Z,90.60
2018-04-15T03:03:57.179Z,90.70
2018-04-15T03:06:25.436Z,90.90
2018-04-15T03:08:53.664Z,92.30
2018-04-15T03:11:22.129Z,90.70
2018-04-15T03:13:50.348Z,90.70
2018-04-15T03:16:19.366Z,89.80
2018-04-15T03:18:47.636Z,89.70
2018-04-15T03:21:15.881Z,90.30
2018-04-15T03:23:44.123Z,90.00
2018-04-15T03:26:13.204Z,90.50
2018-04-15T03:28:41.442Z,92.20
2018-04-15T03:31:09.684Z,92.60
2018-04-15T03:33:37.949Z,92.60
2018-04-15T03:36:06.189Z,92.20
2018-04-15T03:38:34.431Z,91.00
2018-04-15T03:41:02.713Z,92.90
2018-04-15T03:43:30.954Z,91.60
2018-04-15T03:45:59.197Z,91.60
2018-04-15T03:48:27.540Z,93.10
2018-04-15T03:50:55.796Z,91.70
2018-04-15T03:53:24.037Z,92.40
2018-04-15T03:55:52.304Z,90.40
2018-04-15T03:58:20.539Z,91.40
2018-04-15T04:00:48.791Z,90.90
2018-04-15T04:03:17.048Z,92.40
2018-04-15T04:05:45.297Z,93.10
2018-04-15T04:08:13.528Z,92.30
2018-04-15T04:10:41.880Z,92.20
2018-04-15T04:13:10.116Z,91.70
2018-04-15T04:15:38.359Z,93.40
2018-04-15T04:18:18.307Z,92.40
2018-04-15T04:20:58.147Z,92.40
2018-04-15T04:23:39.130Z,92.80
2018-04-15T04:26:07.375Z,93.20
2018-04-15T04:28:35.983Z,93.20
2018-04-15T04:31:04.547Z,92.60
2018-04-15T04:33:32.792Z,92.60
2018-04-15T04:36:01.037Z,92.10
2018-04-15T04:38:29.299Z,92.50
2018-04-15T04:40:57.535Z,92.10
2018-04-15T04:43:25.780Z,92.20
2018-04-15T04:45:54.811Z,92.20
2018-04-15T04:48:23.052Z,92.60
2018-04-15T04:50:51.304Z,92.30
2018-04-15T04:53:20.036Z,95.30
2018-04-15T04:55:48.289Z,94.90
2018-04-15T04:58:16.533Z,94.60
2018-04-15T05:00:44.788Z,95.00
2018-04-15T05:03:13.028Z,94.70
2018-04-15T05:05:41.271Z,94.70
2018-04-15T05:08:09.533Z,94.00
2018-04-15T05:10:37.805Z,94.50
2018-04-15T05:13:06.048Z,96.10
2018-04-15T05:15:34.381Z,96.90
2018-04-15T05:18:02.783Z,96.00
2018-04-15T05:20:31.795Z,95.00
2018-04-15T05:23:00.822Z,94.40
2018-04-15T05:25:29.069Z,94.30
2018-04-15T05:27:57.307Z,94.90
2018-04-15T05:30:25.946Z,95.30
2018-04-15T05:32:54.187Z,96.90
2018-04-15T05:35:22.432Z,95.40
2018-04-15T05:37:51.176Z,96.20
2018-04-15T05:40:19.415Z,95.80
2018-04-15T05:42:47.653Z,96.70
2018-04-15T05:45:15.917Z,97.00
2018-04-15T05:47:44.163Z,96.20
2018-04-15T05:50:12.400Z,95.30
2018-04-15T05:52:40.660Z,97.60
2018-04-15T05:55:08.908Z,97.80
2018-04-15T05:57:37.149Z,97.60
2018-04-15T06:00:05.932Z,96.90
2018-04-15T06:02:34.172Z,96.70
2018-04-15T06:05:02.415Z,96.30
2018-04-15T06:07:30.712Z,96.20
2018-04-15T06:09:58.952Z,96.60
2018-04-15T06:12:27.189Z,96.00
2018-04-15T06:14:55.523Z,96.00
2018-04-15T06:17:24.039Z,96.30
2018-04-15T06:19:52.276Z,96.50
2018-04-15T06:22:21.612Z,97.60
2018-04-15T06:24:49.855Z,97.60
2018-04-15T06:27:18.092Z,97.00
2018-04-15T06:29:46.355Z,97.60
2018-04-15T06:32:14.784Z,97.30
2018-04-15T06:34:43.793Z,97.30
2018-04-15T06:37:12.060Z,97.20
2018-04-15T06:39:40.300Z,97.60
2018-04-15T06:42:08.539Z,97.10
2018-04-15T06:44:37.331Z,97.00
2018-04-15T06:47:05.702Z,96.20
2018-04-15T06:49:34.017Z,96.30
2018-04-15T06:52:02.273Z,96.30
2018-04-15T06:54:30.512Z,96.50
2018-04-15T06:56:59.517Z,96.70
2018-04-15T06:59:27.787Z,96.70
2018-04-15T07:01:56.028Z,97.00
2018-04-15T07:04:24.263Z,97.30
2018-04-15T07:06:52.783Z,98.10
2018-04-15T07:09:21.042Z,98.60
2018-04-15T07:11:49.272Z,97.80
2018-04-15T07:14:17.540Z,98.50
2018-04-15T07:16:46.556Z,98.30
2018-04-15T07:19:14.800Z,98.30
2018-04-15T07:21:43.299Z,97.90
2018-04-15T07:24:11.513Z,96.60
2018-04-15T07:26:39.759Z,96.60
2018-04-15T07:29:08.308Z,96.20
2018-04-15T07:31:36.557Z,96.20
2018-04-15T07:34:05.183Z,95.90
2018-04-15T07:36:34.243Z,95.30
2018-04-15T07:39:02.457Z,95.30
2018-04-15T07:41:30.700Z,96.00
2018-04-15T07:43:58.965Z,96.00
2018-04-15T07:46:27.203Z,95.80
2018-04-15T07:48:55.448Z,95.40
2018-04-15T07:51:23.888Z,94.60
2018-04-15T07:53:52.133Z,94.40
2018-04-15T07:56:20.376Z,91.60
2018-04-15T07:58:48.648Z,91.10
2018-04-15T08:01:16.886Z,91.30
2018-04-15T08:03:45.124Z,91.00
2018-04-15T08:06:14.159Z,90.20
2018-04-15T08:08:42.491Z,90.10
2018-04-15T08:11:11.493Z,91.20
2018-04-15T08:13:40.583Z,90.70
2018-04-15T08:16:08.831Z,90.60
2018-04-15T08:18:37.064Z,91.00
2018-04-15T08:21:05.383Z,91.20
2018-04-15T08:23:33.620Z,90.90
2018-04-15T08:26:01.872Z,90.30
2018-04-15T08:28:30.796Z,90.90
2018-04-15T08:30:59.040Z,90.00
2018-04-15T08:33:27.284Z,89.70
2018-04-15T08:35:56.241Z,89.50
2018-04-15T08:38:24.489Z,90.60
2018-04-15T08:40:52.732Z,87.50
2018-04-15T08:43:21.030Z,85.20
2018-04-15T08:45:49.250Z,85.70
2018-04-15T08:48:17.492Z,85.90
2018-04-15T08:50:46.517Z,84.90
2018-04-15T08:53:14.808Z,84.80
2018-04-15T08:55:43.048Z,85.90
2018-04-15T08:58:11.970Z,87.00
2018-04-15T09:00:41.271Z,83.60
2018-04-15T09:03:10.239Z,84.00
2018-04-15T09:05:38.495Z,83.80
2018-04-15T09:08:07.499Z,81.50
2018-04-15T09:10:35.740Z,81.50
2018-04-15T09:13:04.007Z,81.50
2018-04-15T09:15:33.308Z,83.70
2018-04-15T09:18:01.544Z,82.20
2018-04-15T09:20:30.013Z,83.30
2018-04-15T09:22:58.260Z,83.40
2018-04-15T09:25:26.506Z,78.50
2018-04-15T09:27:54.772Z,81.70
2018-04-15T09:30:23.009Z,79.90
2018-04-15T09:32:52.020Z,75.70
2018-04-15T09:35:20.331Z,75.70
2018-04-15T09:37:48.907Z,73.80
2018-04-15T09:40:17.147Z,77.70
2018-04-15T09:42:46.481Z,75.00
2018-04-15T09:45:14.808Z,75.00
2018-04-15T09:47:43.812Z,74.60
2018-04-15T09:50:12.860Z,73.60
2018-04-15T09:52:41.135Z,73.60
2018-04-15T09:55:09.360Z,70.20
2018-04-15T09:57:37.619Z,72.80
2018-04-15T10:00:06.640Z,74.30
2018-04-15T10:02:34.892Z,73.40
2018-04-15T10:05:03.416Z,73.20
2018-04-15T10:07:31.752Z,73.60
2018-04-15T10:10:00.764Z,70.60
2018-04-15T10:12:29.034Z,70.60
2018-04-15T10:14:57.272Z,67.30
2018-04-15T10:17:25.515Z,63.20
2018-04-15T10:19:53.795Z,60.50
2018-04-15T10:22:22.033Z,66.10
2018-04-15T10:24:51.040Z,67.50
2018-04-15T10:27:20.676Z,66.00
2018-04-15T10:29:48.924Z,65.90
2018-04-15T10:32:17.165Z,61.90
2018-04-15T10:34:45.629Z,65.10
2018-04-15T10:37:13.844Z,68.20
2018-04-15T10:39:43.167Z,62.30
2018-04-15T10:42:12.200Z,61.00
2018-04-15T10:44:40.628Z,61.10
2018-04-15T10:47:08.872Z,65.70
2018-04-15T10:49:37.648Z,59.80
2018-04-15T10:52:05.886Z,58.00
2018-04-15T10:54:34.170Z,58.00
2018-04-15T10:57:02.408Z,55.30
2018-04-15T10:59:31.408Z,57.30
2018-04-15T11:02:00.432Z,60.10
2018-04-15T11:04:28.811Z,60.00
2018-04-15T11:06:57.065Z,51.60
2018-04-15T11:09:25.383Z,55.60
2018-04-15T11:11:53.680Z,48.90
2018-04-15T11:14:21.964Z,47.50
2018-04-15T11:16:50.208Z,53.50
2018-04-15T11:19:18.471Z,51.90
2018-04-15T11:21:46.971Z,51.30
2018-04-15T11:24:15.205Z,46.90
2018-04-15T11:26:44.239Z,49.00
2018-04-15T11:29:12.479Z,48.70
2018-04-15T11:31:40.721Z,49.50
2018-04-15T11:34:09.052Z,48.20
2018-04-15T11:36:37.307Z,50.60
2018-04-15T11:39:06.336Z,51.20
2018-04-15T11:41:34.907Z,47.10
2018-04-15T11:44:03.156Z,47.90
2018-04-15T11:46:32.191Z,46.30
2018-04-15T11:49:00.472Z,45.90
2018-04-15T11:51:28.799Z,45.00
2018-04-15T11:53:57.032Z,49.40
2018-04-15T11:56:25.529Z,46.50
2018-04-15T11:58:53.753Z,46.20
2018-04-15T12:01:21.998Z,45.20
2018-04-15T12:03:50.267Z,43.90
2018-04-15T12:06:18.509Z,46.10
2018-04-15T12:08:46.747Z,46.40
2018-04-15T12:11:15.020Z,47.20
2018-04-15T12:13:44.023Z,44.50
2018-04-15T12:16:12.259Z,44.30
2018-04-15T12:18:40.826Z,45.60
2018-04-15T12:21:09.116Z,44.30
2018-04-15T12:23:38.621Z,41.30
2018-04-15T12:26:07.372Z,41.20
2018-04-15T12:28:35.788Z,40.10
2018-04-15T12:31:04.176Z,40.10
2018-04-15T12:33:32.593Z,41.70
2018-04-15T12:36:01.604Z,44.70
2018-04-15T12:38:29.912Z,44.50
2018-04-15T12:40:58.705Z,42.60
2018-04-15T12:43:27.312Z,40.60
2018-04-15T12:45:55.675Z,38.20
2018-04-15T12:48:24.068Z,40.30
2018-04-15T12:50:53.348Z,38.40
2018-04-15T12:53:21.729Z,39.00
2018-04-15T12:55:50.135Z,40.50
2018-04-15T12:58:18.397Z,40.80
2018-04-15T13:00:46.659Z,42.00
2018-04-15T13:03:15.016Z,42.30
2018-04-15T13:05:43.256Z,40.30
2018-04-15T13:08:11.708Z,42.80
2018-04-15T13:10:39.971Z,39.60
2018-04-15T13:13:09.375Z,40.40
2018-04-15T13:15:37.753Z,42.30
2018-04-15T13:18:08.015Z,39.00
2018-04-15T13:20:37.019Z,41.60
2018-04-15T13:23:06.054Z,37.50
2018-04-15T13:25:34.428Z,37.40
2018-04-15T13:28:02.676Z,41.20
2018-04-15T13:30:30.932Z,39.60
2018-04-15T13:32:59.964Z,36.40
2018-04-15T13:35:28.200Z,36.40
2018-04-15T13:37:57.208Z,35.30
2018-04-15T13:40:26.241Z,33.30
2018-04-15T13:42:54.484Z,33.20
2018-04-15T13:45:22.916Z,31.40
2018-04-15T13:47:52.314Z,32.40
2018-04-15T13:50:20.596Z,31.50
2018-04-15T13:52:48.972Z,31.30
2018-04-15T13:55:17.558Z,29.50
2018-04-15T13:57:45.783Z,30.30
2018-04-15T14:00:14.111Z,31.30
2018-04-15T14:02:43.460Z,30.00
2018-04-15T14:05:12.468Z,28.90
2018-04-15T14:07:40.712Z,28.70
2018-04-15T14:10:09.330Z,28.30
2018-04-15T14:12:37.855Z,31.20
2018-04-15T14:15:06.300Z,30.00
2018-04-15T14:17:34.636Z,31.20
2018-04-15T14:20:02.999Z,31.40
2018-04-15T14:22:31.368Z,30.20
2018-04-15T14:24:59.804Z,30.40
2018-04-15T14:27:31.210Z,30.50
2018-04-15T14:29:59.632Z,31.80
2018-04-15T14:32:28.053Z,32.70
2018-04-15T14:34:56.275Z,32.40
2018-04-15T14:37:24.518Z,32.50
2018-04-15T14:39:52.778Z,32.50
2018-04-15T14:42:21.168Z,33.10
2018-04-15T14:44:49.411Z,33.90
2018-04-15T14:47:19.184Z,34.50
2018-04-15T14:49:48.199Z,34.00
2018-04-15T14:52:18.387Z,33.80
2018-04-15T14:54:46.832Z,33.80
2018-04-15T14:57:15.432Z,34.90
2018-04-15T14:59:43.675Z,35.00
2018-04-15T15:02:11.953Z,34.80
2018-04-15T15:04:40.201Z,34.50
2018-04-15T15:07:08.652Z,34.90
2018-04-15T15:09:36.927Z,34.10
2018-04-15T15:12:05.220Z,35.90
2018-04-15T15:14:33.483Z,35.70
2018-04-15T15:17:01.820Z,34.40
2018-04-15T15:19:30.272Z,32.90
2018-04-15T15:21:58.737Z,35.00
2018-04-15T15:24:26.996Z,36.00
2018-04-15T15:26:55.259Z,34.60
2018-04-15T15:29:23.509Z,34.50
2018-04-15T15:31:51.807Z,34.30
2018-04-15T15:34:20.100Z,34.70
2018-04-15T15:36:48.349Z,35.10
2018-04-15T15:39:16.735Z,34.70
2018-04-15T15:41:45.221Z,33.70
2018-04-15T15:44:13.584Z,33.60
2018-04-15T15:46:41.851Z,35.10
2018-04-15T15:49:10.168Z,33.50
2018-04-15T15:51:38.568Z,34.50
2018-04-15T15:54:06.963Z,34.00
2018-04-15T15:56:35.990Z,33.50
2018-04-15T15:59:04.316Z,33.40
2018-04-15T16:01:32.922Z,33.20
2018-04-15T16:04:01.361Z,33.30
2018-04-15T16:06:29.748Z,32.10
2018-04-15T16:08:59.096Z,33.80
2018-04-15T16:11:29.269Z,34.10
2018-04-15T16:13:57.648Z,34.10
2018-04-15T16:16:26.419Z,34.00
2018-04-15T16:18:54.915Z,33.90
2018-04-15T16:21:24.320Z,33.90
2018-04-15T16:23:53.088Z,34.30
2018-04-15T16:26:21.377Z,34.30
2018-04-15T16:28:49.967Z,34.20
2018-04-15T16:31:18.241Z,33.90
2018-04-15T16:33:46.490Z,35.20
2018-04-15T16:36:14.728Z,34.20
2018-04-15T16:38:43.000Z,35.50
2018-04-15T16:41:11.361Z,35.20
2018-04-15T16:43:39.935Z,35.70
2018-04-15T16:46:08.243Z,36.30
2018-04-15T16:48:36.491Z,35.70
2018-04-15T16:51:04.851Z,35.90
2018-04-15T16:53:33.280Z,36.30
2018-04-15T16:56:01.632Z,36.40
2018-04-15T16:58:29.880Z,37.00
2018-04-15T17:00:58.140Z,37.30
2018-04-15T17:03:26.628Z,36.50
2018-04-15T17:05:54.884Z,36.60
2018-04-15T17:08:24.184Z,36.10
2018-04-15T17:10:54.368Z,36.50
2018-04-15T17:13:22.740Z,36.50
2018-04-15T17:15:51.150Z,35.10
2018-04-15T17:18:20.156Z,37.00
2018-04-15T17:20:49.192Z,36.10
2018-04-15T17:23:18.433Z,36.80
2018-04-15T17:25:46.997Z,36.80
2018-04-15T17:28:15.316Z,36.70
2018-04-15T17:30:44.539Z,37.50
2018-04-15T17:33:12.841Z,38.00
2018-04-15T17:35:41.080Z,36.80
2018-04-15T17:38:09.679Z,37.30
2018-04-15T17:40:37.919Z,37.60
2018-04-15T17:43:06.163Z,37.30
2018-04-15T17:45:34.459Z,37.90
2018-04-15T17:48:02.698Z,37.80
2018-04-15T17:50:30.936Z,38.20
2018-04-15T17:52:59.303Z,38.80
2018-04-15T17:55:27.702Z,39.00
2018-04-15T17:57:55.979Z,39.40
2018-04-15T18:00:24.260Z,39.30
2018-04-15T18:02:53.712Z,39.60
2018-04-15T18:05:21.975Z,39.80
2018-04-15T18:07:50.243Z,40.20
2018-04-15T18:10:18.524Z,40.40
2018-04-15T18:12:46.736Z,40.90
2018-04-15T18:15:15.375Z,40.90
2018-04-15T18:17:43.619Z,41.00
2018-04-15T18:20:12.057Z,41.10
2018-04-15T18:22:40.486Z,41.10
2018-04-15T18:25:08.840Z,41.00
2018-04-15T18:27:38.002Z,41.60
2018-04-15T18:30:06.312Z,41.60
2018-04-15T18:32:35.487Z,42.20
2018-04-15T18:35:03.737Z,42.30
2018-04-15T18:37:32.319Z,41.80
2018-04-15T18:40:00.680Z,41.80
2018-04-15T18:42:28.924Z,42.00
2018-04-15T18:44:57.192Z,42.50
2018-04-15T18:47:25.441Z,42.60
2018-04-15T18:49:53.839Z,42.60
2018-04-15T18:52:22.112Z,42.60
2018-04-15T18:54:50.360Z,42.70
2018-04-15T18:57:18.635Z,42.90
2018-04-15T18:59:47.122Z,43.50
2018-04-15T19:02:15.448Z,43.20
2018-04-15T19:04:43.827Z,43.30
2018-04-15T19:07:12.876Z,43.70
2018-04-15T19:09:41.112Z,43.60
2018-04-15T19:12:09.408Z,43.70
2018-04-15T19:14:37.644Z,43.90
2018-04-15T19:17:05.904Z,44.40
2018-04-15T19:19:34.157Z,45.10
2018-04-15T19:22:02.480Z,44.30
2018-04-15T19:24:30.723Z,44.90
2018-04-15T19:26:58.964Z,45.50
2018-04-15T19:29:27.320Z,45.20
2018-04-15T19:31:56.358Z,45.10
2018-04-15T19:34:24.592Z,45.00
2018-04-15T19:36:52.864Z,45.80
2018-04-15T19:39:21.107Z,45.80
2018-04-15T19:41:49.396Z,46.70
2018-04-15T19:44:17.949Z,46.70
2018-04-15T19:46:46.193Z,46.50
2018-04-15T19:49:14.648Z,46.40
2018-04-15T19:51:43.684Z,47.50
2018-04-15T19:54:12.612Z,47.20
2018-04-15T19:56:40.885Z,47.50
2018-04-15T19:59:09.139Z,46.50
2018-04-15T20:01:37.440Z,46.80
2018-04-15T20:04:05.815Z,47.80
2018-04-15T20:06:34.296Z,47.30
2018-04-15T20:09:02.540Z,47.20
2018-04-15T20:11:30.788Z,47.40
2018-04-15T20:13:59.055Z,47.50
2018-04-15T20:16:28.066Z,48.40
2018-04-15T20:18:57.080Z,48.20
2018-04-15T20:21:25.355Z,48.10
2018-04-15T20:23:53.611Z,49.20
2018-04-15T20:26:21.861Z,49.60
2018-04-15T20:28:50.309Z,48.80
2018-04-15T20:31:18.580Z,49.20
2018-04-15T20:33:47.201Z,49.40
2018-04-15T20:36:15.457Z,48.70
2018-04-15T20:38:43.707Z,49.10
2018-04-15T20:41:11.944Z,50.40
2018-04-15T20:43:40.982Z,50.50
2018-04-15T20:46:09.224Z,50.50
2018-04-15T20:48:38.235Z,51.20
2018-04-15T20:51:07.369Z,51.20
2018-04-15T20:53:36.788Z,51.20
2018-04-15T20:56:05.036Z,50.60
2018-04-15T20:58:33.299Z,50.50
2018-04-15T21:01:01.548Z,50.70
2018-04-15T21:03:29.796Z,51.20
2018-04-15T21:05:58.070Z,51.50
2018-04-15T21:08:26.316Z,51.20
2018-04-15T21:10:55.748Z,51.50
2018-04-15T21:13:24.200Z,52.10
2018-04-15T21:15:52.504Z,52.50
2018-04-15T21:18:20.748Z,52.40
2018-04-15T21:20:49.016Z,52.70
2018-04-15T21:23:17.260Z,52.30
2018-04-15T21:25:45.504Z,52.30
2018-04-15T21:28:13.812Z,53.20
2018-04-15T21:30:42.819Z,53.20
2018-04-15T21:33:11.868Z,53.70
2018-04-15T21:35:40.228Z,53.70
2018-04-15T21:38:08.836Z,52.90
2018-04-15T21:40:37.084Z,53.70
2018-04-15T21:43:05.366Z,53.90
2018-04-15T21:45:33.608Z,53.60
2018-04-15T21:48:02.044Z,53.20
2018-04-15T21:50:30.312Z,53.70
2018-04-15T21:52:59.737Z,54.30
2018-04-15T21:55:28.724Z,54.30
2018-04-15T21:57:57.191Z,55.40
2018-04-15T22:00:25.484Z,55.50
2018-04-15T22:02:53.728Z,55.30
2018-04-15T22:05:21.990Z,56.00
2018-04-15T22:07:50.236Z,56.00
2018-04-15T22:10:18.480Z,56.20
2018-04-15T22:12:46.745Z,55.20
2018-04-15T22:15:15.000Z,55.60
2018-04-15T22:17:43.252Z,55.50
2018-04-15T22:20:12.592Z,56.10
2018-04-15T22:22:40.841Z,56.10
2018-04-15T22:25:09.097Z,56.50
2018-04-15T22:27:37.369Z,56.70
2018-04-15T22:30:06.401Z,56.30
2018-04-15T22:32:34.648Z,56.30
2018-04-15T22:35:02.948Z,57.30
2018-04-15T22:37:31.204Z,57.10
2018-04-15T22:40:02.312Z,56.90
2018-04-15T22:42:30.768Z,56.90
2018-04-15T22:44:59.013Z,57.90
2018-04-15T22:47:27.252Z,57.40
2018-04-15T22:50:01.648Z,56.40
2018-04-15T22:52:29.892Z,56.30
2018-04-15T22:54:58.132Z,56.70
2018-04-15T22:57:26.855Z,57.50
2018-04-15T22:59:55.091Z,57.10
2018-04-15T23:02:24.100Z,56.90
2018-04-15T23:04:52.636Z,57.00
2018-04-15T23:07:20.883Z,57.10
2018-04-15T23:09:49.128Z,57.30
2018-04-15T23:12:17.403Z,56.90
2018-04-15T23:14:45.763Z,56.20
2018-04-15T23:17:14.214Z,56.90
2018-04-15T23:19:42.594Z,57.20
2018-04-15T23:22:10.973Z,57.70
2018-04-15T23:24:39.215Z,57.60
2018-04-15T23:27:07.738Z,58.00
2018-04-15T23:29:35.970Z,58.20
2018-04-15T23:32:04.216Z,58.60
2018-04-15T23:34:32.484Z,58.00
2018-04-15T23:37:00.941Z,58.90
2018-04-15T23:39:29.210Z,59.20
2018-04-15T23:41:57.443Z,59.00
2018-04-15T23:44:25.683Z,58.40
2018-04-15T23:46:53.931Z,58.70
2018-04-15T23:49:22.533Z,59.00
2018-04-15T23:51:50.771Z,60.00
2018-04-15T23:54:19.015Z,61.20
2018-04-15T23:56:52.859Z,60.60
2018-04-15T23:59:22.215Z,62.00
